Tie Siding, Wyoming
Current Conditions -  °F | °C
As of 11:53 PM on Thursday 30 Oct 2014 (Local Time) from KLAR Reporting Station
Clear Clear  
Wind Chill: 28°   Ceiling: Unl
Heat Index: 37°   Visibility: 10mi
Dew Point: 24°   Wind: 16mph
Humidity: 59%   Direction: 150°SSE
Pressure: 30.37"   Gusts: NA
Location:  41.09°N, 105.49°W
Report Text: KLAR 310553Z AUTO 15014KT 10SM CLR 03/M04 A3037 RMK AO2 SLP239 T00281044 10083 20022 58005
Loading
Personal Weather Stations






























Interactive Weather Map
Tropical Storm Tracking
New forecast layout! Learn more

10-Day Weather Forecast

Advertisements
Track Severe Weather on mobile